sensor_id;sensor_type;location;lat;lon;timestamp;P1;durP1;ratioP1;P2;durP2;ratioP2
31680;SDS011;18281;51.364;9.566;2022-08-19T00:00:47;15.90;;;12.95;;
31680;SDS011;18281;51.364;9.566;2022-08-19T00:03:12;18.23;;;12.88;;
31680;SDS011;18281;51.364;9.566;2022-08-19T00:05:38;18.08;;;13.35;;
31680;SDS011;18281;51.364;9.566;2022-08-19T00:08:05;16.48;;;12.73;;
31680;SDS011;18281;51.364;9.566;2022-08-19T00:10:39;14.30;;;12.18;;
31680;SDS011;18281;51.364;9.566;2022-08-19T00:13:04;13.13;;;11.73;;
31680;SDS011;18281;51.364;9.566;2022-08-19T00:15:32;13.32;;;11.75;;
31680;SDS011;18281;51.364;9.566;2022-08-19T00:17:58;13.35;;;11.88;;
31680;SDS011;18281;51.364;9.566;2022-08-19T00:20:26;16.30;;;12.57;;
31680;SDS011;18281;51.364;9.566;2022-08-19T00:22:55;13.98;;;12.45;;
31680;SDS011;18281;51.364;9.566;2022-08-19T00:25:21;14.48;;;11.13;;
31680;SDS011;18281;51.364;9.566;2022-08-19T00:27:46;12.98;;;11.68;;
31680;SDS011;18281;51.364;9.566;2022-08-19T00:30:15;14.00;;;11.45;;
31680;SDS011;18281;51.364;9.566;2022-08-19T00:32:53;12.98;;;11.40;;
31680;SDS011;18281;51.364;9.566;2022-08-19T00:35:21;13.25;;;10.77;;
31680;SDS011;18281;51.364;9.566;2022-08-19T00:37:52;12.30;;;11.00;;
31680;SDS011;18281;51.364;9.566;2022-08-19T00:40:17;13.75;;;11.23;;
31680;SDS011;18281;51.364;9.566;2022-08-19T00:42:46;13.18;;;10.80;;
31680;SDS011;18281;51.364;9.566;2022-08-19T00:45:20;15.90;;;11.05;;
31680;SDS011;18281;51.364;9.566;2022-08-19T00:47:53;12.73;;;11.27;;
31680;SDS011;18281;51.364;9.566;2022-08-19T00:50:19;12.45;;;10.88;;
31680;SDS011;18281;51.364;9.566;2022-08-19T00:52:46;13.13;;;11.65;;
31680;SDS011;18281;51.364;9.566;2022-08-19T00:55:22;13.73;;;10.98;;
31680;SDS011;18281;51.364;9.566;2022-08-19T00:58:01;13.25;;;11.15;;
31680;SDS011;18281;51.364;9.566;2022-08-19T01:00:34;12.98;;;10.27;;
31680;SDS011;18281;51.364;9.566;2022-08-19T01:09:54;11.18;;;9.40;;
31680;SDS011;18281;51.364;9.566;2022-08-19T01:12:22;18.58;;;10.30;;
31680;SDS011;18281;51.364;9.566;2022-08-19T01:14:48;14.00;;;10.02;;
31680;SDS011;18281;51.364;9.566;2022-08-19T01:17:15;11.00;;;9.90;;
31680;SDS011;18281;51.364;9.566;2022-08-19T01:19:42;14.68;;;11.70;;
31680;SDS011;18281;51.364;9.566;2022-08-19T01:22:30;12.68;;;11.20;;
31680;SDS011;18281;51.364;9.566;2022-08-19T01:25:01;13.00;;;10.63;;
31680;SDS011;18281;51.364;9.566;2022-08-19T01:27:37;12.98;;;11.00;;
31680;SDS011;18281;51.364;9.566;2022-08-19T01:30:07;11.68;;;10.48;;
31680;SDS011;18281;51.364;9.566;2022-08-19T01:32:35;11.98;;;10.52;;
31680;SDS011;18281;51.364;9.566;2022-08-19T01:35:01;11.93;;;10.07;;
31680;SDS011;18281;51.364;9.566;2022-08-19T01:37:28;11.48;;;9.98;;
31680;SDS011;18281;51.364;9.566;2022-08-19T01:39:55;13.68;;;10.05;;
31680;SDS011;18281;51.364;9.566;2022-08-19T01:42:21;11.00;;;9.90;;
31680;SDS011;18281;51.364;9.566;2022-08-19T01:44:47;15.60;;;10.27;;
31680;SDS011;18281;51.364;9.566;2022-08-19T01:47:13;12.25;;;9.38;;
31680;SDS011;18281;51.364;9.566;2022-08-19T01:49:40;10.52;;;9.35;;
31680;SDS011;18281;51.364;9.566;2022-08-19T01:52:06;11.07;;;9.85;;
31680;SDS011;18281;51.364;9.566;2022-08-19T01:54:34;11.35;;;9.80;;
31680;SDS011;18281;51.364;9.566;2022-08-19T01:57:10;14.55;;;10.65;;
31680;SDS011;18281;51.364;9.566;2022-08-19T01:59:51;12.43;;;10.05;;
31680;SDS011;18281;51.364;9.566;2022-08-19T02:02:17;11.85;;;10.20;;
31680;SDS011;18281;51.364;9.566;2022-08-19T02:04:43;11.63;;;10.18;;
31680;SDS011;18281;51.364;9.566;2022-08-19T02:07:11;12.50;;;10.52;;
31680;SDS011;18281;51.364;9.566;2022-08-19T02:09:39;12.52;;;11.23;;
31680;SDS011;18281;51.364;9.566;2022-08-19T02:12:06;11.75;;;10.55;;
31680;SDS011;18281;51.364;9.566;2022-08-19T02:14:34;12.07;;;10.23;;
31680;SDS011;18281;51.364;9.566;2022-08-19T02:17:01;14.27;;;10.40;;
31680;SDS011;18281;51.364;9.566;2022-08-19T02:19:26;12.43;;;10.45;;
31680;SDS011;18281;51.364;9.566;2022-08-19T02:21:52;11.55;;;9.98;;
31680;SDS011;18281;51.364;9.566;2022-08-19T02:24:24;12.77;;;9.38;;
31680;SDS011;18281;51.364;9.566;2022-08-19T02:26:56;12.38;;;9.50;;
31680;SDS011;18281;51.364;9.566;2022-08-19T02:29:22;12.30;;;9.77;;
31680;SDS011;18281;51.364;9.566;2022-08-19T02:31:50;11.48;;;9.05;;
31680;SDS011;18281;51.364;9.566;2022-08-19T02:34:16;12.15;;;9.40;;
31680;SDS011;18281;51.364;9.566;2022-08-19T02:36:45;14.85;;;8.90;;
31680;SDS011;18281;51.364;9.566;2022-08-19T02:39:11;10.60;;;9.13;;
31680;SDS011;18281;51.364;9.566;2022-08-19T02:41:36;9.52;;;8.43;;
31680;SDS011;18281;51.364;9.566;2022-08-19T02:44:04;10.52;;;9.52;;
31680;SDS011;18281;51.364;9.566;2022-08-19T02:46:35;9.90;;;8.88;;
31680;SDS011;18281;51.364;9.566;2022-08-19T02:49:03;10.98;;;9.50;;
31680;SDS011;18281;51.364;9.566;2022-08-19T02:51:35;10.85;;;8.77;;
31680;SDS011;18281;51.364;9.566;2022-08-19T02:54:04;9.35;;;8.27;;
31680;SDS011;18281;51.364;9.566;2022-08-19T02:56:31;11.82;;;8.90;;
31680;SDS011;18281;51.364;9.566;2022-08-19T02:59:02;9.93;;;8.93;;
31680;SDS011;18281;51.364;9.566;2022-08-19T03:01:39;10.57;;;8.07;;
31680;SDS011;18281;51.364;9.566;2022-08-19T03:04:06;8.95;;;8.07;;
31680;SDS011;18281;51.364;9.566;2022-08-19T03:06:42;9.43;;;8.57;;
31680;SDS011;18281;51.364;9.566;2022-08-19T03:09:13;10.15;;;8.77;;
31680;SDS011;18281;51.364;9.566;2022-08-19T03:11:39;11.63;;;7.82;;
31680;SDS011;18281;51.364;9.566;2022-08-19T03:14:06;9.30;;;7.68;;
31680;SDS011;18281;51.364;9.566;2022-08-19T03:16:36;8.82;;;7.65;;
31680;SDS011;18281;51.364;9.566;2022-08-19T03:19:15;9.57;;;7.72;;
31680;SDS011;18281;51.364;9.566;2022-08-19T03:21:45;10.98;;;8.15;;
31680;SDS011;18281;51.364;9.566;2022-08-19T03:24:14;8.32;;;7.43;;
31680;SDS011;18281;51.364;9.566;2022-08-19T03:26:46;9.23;;;7.60;;
31680;SDS011;18281;51.364;9.566;2022-08-19T03:29:13;8.65;;;7.35;;
31680;SDS011;18281;51.364;9.566;2022-08-19T03:31:41;10.63;;;7.75;;
31680;SDS011;18281;51.364;9.566;2022-08-19T03:34:08;10.27;;;6.93;;
31680;SDS011;18281;51.364;9.566;2022-08-19T03:36:39;9.20;;;6.55;;
31680;SDS011;18281;51.364;9.566;2022-08-19T03:39:09;7.07;;;6.28;;
31680;SDS011;18281;51.364;9.566;2022-08-19T03:41:39;6.45;;;5.75;;
31680;SDS011;18281;51.364;9.566;2022-08-19T03:44:11;10.88;;;6.43;;
31680;SDS011;18281;51.364;9.566;2022-08-19T03:46:40;6.97;;;5.90;;
31680;SDS011;18281;51.364;9.566;2022-08-19T03:49:06;7.30;;;6.18;;
31680;SDS011;18281;51.364;9.566;2022-08-19T03:51:33;7.38;;;6.57;;
31680;SDS011;18281;51.364;9.566;2022-08-19T03:54:01;9.27;;;6.00;;
31680;SDS011;18281;51.364;9.566;2022-08-19T03:56:29;8.10;;;6.53;;
31680;SDS011;18281;51.364;9.566;2022-08-19T03:58:56;8.20;;;5.80;;
31680;SDS011;18281;51.364;9.566;2022-08-19T04:01:24;9.02;;;6.53;;
31680;SDS011;18281;51.364;9.566;2022-08-19T04:03:54;7.97;;;6.68;;
31680;SDS011;18281;51.364;9.566;2022-08-19T04:06:25;6.60;;;5.90;;
31680;SDS011;18281;51.364;9.566;2022-08-19T04:08:52;7.80;;;5.65;;
31680;SDS011;18281;51.364;9.566;2022-08-19T04:11:21;8.20;;;5.95;;
31680;SDS011;18281;51.364;9.566;2022-08-19T04:13:50;7.57;;;6.75;;
31680;SDS011;18281;51.364;9.566;2022-08-19T04:16:18;6.63;;;5.85;;
31680;SDS011;18281;51.364;9.566;2022-08-19T04:18:45;13.95;;;6.18;;
31680;SDS011;18281;51.364;9.566;2022-08-19T04:21:16;8.88;;;6.50;;
31680;SDS011;18281;51.364;9.566;2022-08-19T04:27:29;8.48;;;6.63;;
31680;SDS011;18281;51.364;9.566;2022-08-19T04:37:15;9.32;;;6.57;;
31680;SDS011;18281;51.364;9.566;2022-08-19T05:20:12;9.52;;;5.40;;
31680;SDS011;18281;51.364;9.566;2022-08-19T05:22:57;8.00;;;5.60;;
31680;SDS011;18281;51.364;9.566;2022-08-19T05:25:29;8.18;;;5.88;;
31680;SDS011;18281;51.364;9.566;2022-08-19T05:27:54;7.43;;;5.53;;
31680;SDS011;18281;51.364;9.566;2022-08-19T05:30:19;8.65;;;6.18;;
31680;SDS011;18281;51.364;9.566;2022-08-19T05:32:45;10.23;;;6.40;;
31680;SDS011;18281;51.364;9.566;2022-08-19T05:35:10;9.30;;;5.68;;
31680;SDS011;18281;51.364;9.566;2022-08-19T05:37:36;7.35;;;5.22;;
31680;SDS011;18281;51.364;9.566;2022-08-19T05:40:05;6.72;;;5.18;;
31680;SDS011;18281;51.364;9.566;2022-08-19T05:42:30;12.23;;;5.55;;
31680;SDS011;18281;51.364;9.566;2022-08-19T05:44:56;6.38;;;5.53;;
31680;SDS011;18281;51.364;9.566;2022-08-19T05:47:21;6.55;;;5.32;;
31680;SDS011;18281;51.364;9.566;2022-08-19T05:49:48;7.43;;;5.35;;
31680;SDS011;18281;51.364;9.566;2022-08-19T05:52:15;10.02;;;4.60;;
31680;SDS011;18281;51.364;9.566;2022-08-19T05:54:40;6.43;;;4.10;;
31680;SDS011;18281;51.364;9.566;2022-08-19T05:57:06;7.43;;;4.68;;
31680;SDS011;18281;51.364;9.566;2022-08-19T05:59:33;8.77;;;5.22;;
31680;SDS011;18281;51.364;9.566;2022-08-19T06:02:00;9.23;;;5.50;;
31680;SDS011;18281;51.364;9.566;2022-08-19T06:04:26;7.50;;;4.32;;
31680;SDS011;18281;51.364;9.566;2022-08-19T06:06:52;9.82;;;5.05;;
31680;SDS011;18281;51.364;9.566;2022-08-19T06:09:19;8.70;;;5.65;;
31680;SDS011;18281;51.364;9.566;2022-08-19T06:11:47;8.70;;;5.60;;
31680;SDS011;18281;51.364;9.566;2022-08-19T06:14:19;7.88;;;5.55;;
31680;SDS011;18281;51.364;9.566;2022-08-19T06:19:15;10.68;;;5.07;;
31680;SDS011;18281;51.364;9.566;2022-08-19T06:21:42;5.55;;;4.60;;
31680;SDS011;18281;51.364;9.566;2022-08-19T06:24:12;4.90;;;4.38;;
31680;SDS011;18281;51.364;9.566;2022-08-19T06:26:41;6.13;;;4.57;;
31680;SDS011;18281;51.364;9.566;2022-08-19T06:29:09;7.63;;;5.03;;
31680;SDS011;18281;51.364;9.566;2022-08-19T06:31:36;6.68;;;4.95;;
31680;SDS011;18281;51.364;9.566;2022-08-19T06:34:05;12.02;;;4.38;;
31680;SDS011;18281;51.364;9.566;2022-08-19T06:36:32;6.22;;;4.20;;
31680;SDS011;18281;51.364;9.566;2022-08-19T06:39:05;10.07;;;4.03;;
31680;SDS011;18281;51.364;9.566;2022-08-19T06:41:41;5.55;;;3.50;;
31680;SDS011;18281;51.364;9.566;2022-08-19T06:44:08;4.65;;;3.53;;
31680;SDS011;18281;51.364;9.566;2022-08-19T06:46:34;7.43;;;3.40;;
31680;SDS011;18281;51.364;9.566;2022-08-19T06:49:00;6.75;;;3.38;;
31680;SDS011;18281;51.364;9.566;2022-08-19T06:51:26;5.47;;;2.90;;
31680;SDS011;18281;51.364;9.566;2022-08-19T06:53:52;5.22;;;3.05;;
31680;SDS011;18281;51.364;9.566;2022-08-19T06:56:20;5.65;;;3.20;;
31680;SDS011;18281;51.364;9.566;2022-08-19T06:58:55;3.97;;;2.67;;
31680;SDS011;18281;51.364;9.566;2022-08-19T07:01:21;5.90;;;2.25;;
31680;SDS011;18281;51.364;9.566;2022-08-19T07:03:47;2.75;;;2.17;;
31680;SDS011;18281;51.364;9.566;2022-08-19T07:06:14;3.25;;;2.38;;
31680;SDS011;18281;51.364;9.566;2022-08-19T07:08:43;3.28;;;2.30;;
31680;SDS011;18281;51.364;9.566;2022-08-19T07:11:12;4.13;;;2.60;;
31680;SDS011;18281;51.364;9.566;2022-08-19T07:13:40;8.40;;;3.03;;
31680;SDS011;18281;51.364;9.566;2022-08-19T07:16:10;4.38;;;2.28;;
31680;SDS011;18281;51.364;9.566;2022-08-19T07:18:37;2.35;;;2.08;;
31680;SDS011;18281;51.364;9.566;2022-08-19T07:21:10;4.15;;;2.90;;
31680;SDS011;18281;51.364;9.566;2022-08-19T07:23:38;3.00;;;2.40;;
31680;SDS011;18281;51.364;9.566;2022-08-19T07:26:08;8.80;;;2.80;;
31680;SDS011;18281;51.364;9.566;2022-08-19T07:28:39;6.45;;;2.90;;
31680;SDS011;18281;51.364;9.566;2022-08-19T07:31:07;2.13;;;2.03;;
31680;SDS011;18281;51.364;9.566;2022-08-19T07:33:35;4.40;;;2.30;;
31680;SDS011;18281;51.364;9.566;2022-08-19T07:36:02;4.45;;;3.03;;
31680;SDS011;18281;51.364;9.566;2022-08-19T07:38:29;3.00;;;2.13;;
31680;SDS011;18281;51.364;9.566;2022-08-19T07:40:55;4.22;;;2.60;;
31680;SDS011;18281;51.364;9.566;2022-08-19T07:43:20;3.53;;;2.50;;
31680;SDS011;18281;51.364;9.566;2022-08-19T07:45:49;5.03;;;2.55;;
31680;SDS011;18281;51.364;9.566;2022-08-19T07:48:15;4.03;;;2.85;;
31680;SDS011;18281;51.364;9.566;2022-08-19T07:50:40;5.90;;;2.92;;
31680;SDS011;18281;51.364;9.566;2022-08-19T07:53:06;5.28;;;3.10;;
31680;SDS011;18281;51.364;9.566;2022-08-19T07:55:31;5.43;;;2.83;;
31680;SDS011;18281;51.364;9.566;2022-08-19T07:57:56;5.80;;;3.20;;
31680;SDS011;18281;51.364;9.566;2022-08-19T08:00:22;3.92;;;3.30;;
31680;SDS011;18281;51.364;9.566;2022-08-19T08:02:47;4.40;;;2.65;;
31680;SDS011;18281;51.364;9.566;2022-08-19T08:05:13;2.97;;;2.22;;
31680;SDS011;18281;51.364;9.566;2022-08-19T08:07:57;3.20;;;2.35;;
31680;SDS011;18281;51.364;9.566;2022-08-19T08:10:41;4.07;;;2.65;;
31680;SDS011;18281;51.364;9.566;2022-08-19T08:13:06;3.75;;;3.00;;
31680;SDS011;18281;51.364;9.566;2022-08-19T08:15:32;3.05;;;2.70;;
31680;SDS011;18281;51.364;9.566;2022-08-19T08:17:57;6.07;;;2.33;;
31680;SDS011;18281;51.364;9.566;2022-08-19T08:20:23;4.43;;;3.00;;
31680;SDS011;18281;51.364;9.566;2022-08-19T08:22:49;3.85;;;2.63;;
31680;SDS011;18281;51.364;9.566;2022-08-19T08:25:33;5.45;;;2.85;;
31680;SDS011;18281;51.364;9.566;2022-08-19T08:28:00;4.35;;;2.78;;
31680;SDS011;18281;51.364;9.566;2022-08-19T08:30:28;3.92;;;2.95;;
31680;SDS011;18281;51.364;9.566;2022-08-19T08:32:54;9.25;;;2.75;;
31680;SDS011;18281;51.364;9.566;2022-08-19T08:35:21;3.55;;;3.25;;
31680;SDS011;18281;51.364;9.566;2022-08-19T08:37:48;9.20;;;3.00;;
31680;SDS011;18281;51.364;9.566;2022-08-19T08:40:23;5.43;;;3.00;;
31680;SDS011;18281;51.364;9.566;2022-08-19T08:42:57;6.43;;;2.95;;
31680;SDS011;18281;51.364;9.566;2022-08-19T08:45:33;3.20;;;2.90;;
31680;SDS011;18281;51.364;9.566;2022-08-19T08:48:07;3.60;;;2.40;;
31680;SDS011;18281;51.364;9.566;2022-08-19T08:50:42;2.53;;;2.33;;
31680;SDS011;18281;51.364;9.566;2022-08-19T08:55:43;3.53;;;2.30;;
31680;SDS011;18281;51.364;9.566;2022-08-19T08:58:12;3.47;;;2.60;;
31680;SDS011;18281;51.364;9.566;2022-08-19T09:00:45;3.35;;;2.80;;
31680;SDS011;18281;51.364;9.566;2022-08-19T09:08:17;2.83;;;2.33;;
31680;SDS011;18281;51.364;9.566;2022-08-19T09:10:56;3.60;;;2.60;;
31680;SDS011;18281;51.364;9.566;2022-08-19T09:16:19;3.95;;;2.20;;
31680;SDS011;18281;51.364;9.566;2022-08-19T09:18:52;4.07;;;2.70;;
31680;SDS011;18281;51.364;9.566;2022-08-19T09:21:23;2.58;;;2.38;;
31680;SDS011;18281;51.364;9.566;2022-08-19T09:23:50;2.65;;;2.15;;
31680;SDS011;18281;51.364;9.566;2022-08-19T09:26:18;3.40;;;2.10;;
31680;SDS011;18281;51.364;9.566;2022-08-19T09:28:46;5.82;;;2.67;;
31680;SDS011;18281;51.364;9.566;2022-08-19T09:31:14;2.78;;;2.40;;
31680;SDS011;18281;51.364;9.566;2022-08-19T09:33:41;3.55;;;2.55;;
31680;SDS011;18281;51.364;9.566;2022-08-19T09:36:10;3.75;;;2.17;;
31680;SDS011;18281;51.364;9.566;2022-08-19T09:38:37;2.40;;;1.88;;
31680;SDS011;18281;51.364;9.566;2022-08-19T09:41:06;2.22;;;2.03;;
31680;SDS011;18281;51.364;9.566;2022-08-19T09:43:33;2.33;;;2.15;;
31680;SDS011;18281;51.364;9.566;2022-08-19T09:46:01;4.13;;;2.35;;
31680;SDS011;18281;51.364;9.566;2022-08-19T09:48:30;2.40;;;2.20;;
31680;SDS011;18281;51.364;9.566;2022-08-19T09:51:06;3.30;;;2.60;;
31680;SDS011;18281;51.364;9.566;2022-08-19T09:53:35;4.32;;;2.33;;
31680;SDS011;18281;51.364;9.566;2022-08-19T09:56:02;3.58;;;2.05;;
31680;SDS011;18281;51.364;9.566;2022-08-19T09:58:29;2.38;;;2.17;;
31680;SDS011;18281;51.364;9.566;2022-08-19T10:00:55;2.05;;;1.95;;
31680;SDS011;18281;51.364;9.566;2022-08-19T10:03:22;3.85;;;2.15;;
31680;SDS011;18281;51.364;9.566;2022-08-19T10:05:47;5.25;;;2.60;;
31680;SDS011;18281;51.364;9.566;2022-08-19T10:08:14;2.55;;;2.17;;
31680;SDS011;18281;51.364;9.566;2022-08-19T10:10:44;3.60;;;1.88;;
31680;SDS011;18281;51.364;9.566;2022-08-19T10:13:11;7.72;;;2.30;;
31680;SDS011;18281;51.364;9.566;2022-08-19T10:15:37;2.85;;;1.77;;
31680;SDS011;18281;51.364;9.566;2022-08-19T10:18:05;3.03;;;2.53;;
31680;SDS011;18281;51.364;9.566;2022-08-19T10:20:31;2.53;;;1.85;;
31680;SDS011;18281;51.364;9.566;2022-08-19T10:22:57;2.28;;;2.05;;
31680;SDS011;18281;51.364;9.566;2022-08-19T10:25:24;5.15;;;2.35;;
31680;SDS011;18281;51.364;9.566;2022-08-19T10:27:51;2.75;;;2.08;;
31680;SDS011;18281;51.364;9.566;2022-08-19T10:30:17;4.95;;;2.00;;
31680;SDS011;18281;51.364;9.566;2022-08-19T10:32:43;2.65;;;2.33;;
31680;SDS011;18281;51.364;9.566;2022-08-19T10:35:11;3.30;;;1.80;;
31680;SDS011;18281;51.364;9.566;2022-08-19T10:37:37;3.00;;;2.20;;
31680;SDS011;18281;51.364;9.566;2022-08-19T10:40:07;3.55;;;2.17;;
31680;SDS011;18281;51.364;9.566;2022-08-19T10:42:35;1.98;;;1.83;;
31680;SDS011;18281;51.364;9.566;2022-08-19T10:45:01;4.88;;;2.22;;
31680;SDS011;18281;51.364;9.566;2022-08-19T10:47:27;5.25;;;2.08;;
31680;SDS011;18281;51.364;9.566;2022-08-19T10:49:53;2.50;;;2.30;;
31680;SDS011;18281;51.364;9.566;2022-08-19T10:52:48;3.35;;;2.15;;
31680;SDS011;18281;51.364;9.566;2022-08-19T10:55:15;4.40;;;2.15;;
31680;SDS011;18281;51.364;9.566;2022-08-19T10:57:59;3.45;;;2.25;;
31680;SDS011;18281;51.364;9.566;2022-08-19T11:00:25;3.72;;;2.10;;
31680;SDS011;18281;51.364;9.566;2022-08-19T11:02:51;2.28;;;2.08;;
31680;SDS011;18281;51.364;9.566;2022-08-19T11:05:17;4.97;;;2.15;;
31680;SDS011;18281;51.364;9.566;2022-08-19T11:07:44;5.57;;;1.98;;
31680;SDS011;18281;51.364;9.566;2022-08-19T11:10:10;2.88;;;1.90;;
31680;SDS011;18281;51.364;9.566;2022-08-19T11:12:38;3.05;;;2.30;;
31680;SDS011;18281;51.364;9.566;2022-08-19T11:15:05;2.33;;;2.10;;
31680;SDS011;18281;51.364;9.566;2022-08-19T11:17:33;3.10;;;2.10;;
31680;SDS011;18281;51.364;9.566;2022-08-19T11:19:58;3.80;;;1.83;;
31680;SDS011;18281;51.364;9.566;2022-08-19T11:22:27;2.40;;;2.00;;
31680;SDS011;18281;51.364;9.566;2022-08-19T11:24:52;2.75;;;2.08;;
31680;SDS011;18281;51.364;9.566;2022-08-19T11:27:17;3.15;;;1.98;;
31680;SDS011;18281;51.364;9.566;2022-08-19T11:29:43;2.47;;;1.88;;
31680;SDS011;18281;51.364;9.566;2022-08-19T11:32:09;2.58;;;1.70;;
31680;SDS011;18281;51.364;9.566;2022-08-19T11:34:35;2.78;;;1.70;;
31680;SDS011;18281;51.364;9.566;2022-08-19T11:37:02;6.10;;;2.00;;
31680;SDS011;18281;51.364;9.566;2022-08-19T11:39:29;2.10;;;1.90;;
31680;SDS011;18281;51.364;9.566;2022-08-19T11:41:59;4.00;;;2.03;;
31680;SDS011;18281;51.364;9.566;2022-08-19T11:44:45;2.85;;;2.15;;
31680;SDS011;18281;51.364;9.566;2022-08-19T11:47:11;5.68;;;1.90;;
31680;SDS011;18281;51.364;9.566;2022-08-19T11:49:37;2.78;;;1.75;;
31680;SDS011;18281;51.364;9.566;2022-08-19T11:52:03;2.55;;;2.00;;
31680;SDS011;18281;51.364;9.566;2022-08-19T11:54:28;4.57;;;2.05;;
31680;SDS011;18281;51.364;9.566;2022-08-19T11:56:54;2.72;;;1.80;;
31680;SDS011;18281;51.364;9.566;2022-08-19T11:59:20;4.18;;;2.00;;
31680;SDS011;18281;51.364;9.566;2022-08-19T12:01:45;2.35;;;1.85;;
31680;SDS011;18281;51.364;9.566;2022-08-19T12:04:11;3.63;;;1.83;;
31680;SDS011;18281;51.364;9.566;2022-08-19T12:06:37;2.75;;;2.17;;
31680;SDS011;18281;51.364;9.566;2022-08-19T12:09:05;3.63;;;2.05;;
31680;SDS011;18281;51.364;9.566;2022-08-19T12:11:34;2.17;;;1.98;;
31680;SDS011;18281;51.364;9.566;2022-08-19T12:14:02;2.05;;;1.77;;
31680;SDS011;18281;51.364;9.566;2022-08-19T12:16:28;3.42;;;2.10;;
31680;SDS011;18281;51.364;9.566;2022-08-19T12:18:55;2.42;;;2.15;;
31680;SDS011;18281;51.364;9.566;2022-08-19T12:21:24;2.45;;;1.90;;
31680;SDS011;18281;51.364;9.566;2022-08-19T12:23:55;2.28;;;2.08;;
31680;SDS011;18281;51.364;9.566;2022-08-19T12:26:23;2.15;;;1.92;;
31680;SDS011;18281;51.364;9.566;2022-08-19T12:28:49;3.53;;;2.25;;
31680;SDS011;18281;51.364;9.566;2022-08-19T12:31:15;6.55;;;1.88;;
31680;SDS011;18281;51.364;9.566;2022-08-19T12:33:41;5.18;;;2.05;;
31680;SDS011;18281;51.364;9.566;2022-08-19T12:36:09;4.97;;;1.90;;
31680;SDS011;18281;51.364;9.566;2022-08-19T12:38:37;4.90;;;2.20;;
31680;SDS011;18281;51.364;9.566;2022-08-19T12:41:04;4.32;;;1.73;;
31680;SDS011;18281;51.364;9.566;2022-08-19T12:43:31;4.20;;;1.83;;
31680;SDS011;18281;51.364;9.566;2022-08-19T12:45:57;2.25;;;2.05;;
31680;SDS011;18281;51.364;9.566;2022-08-19T12:48:22;2.75;;;1.73;;
31680;SDS011;18281;51.364;9.566;2022-08-19T12:50:48;5.47;;;1.80;;
31680;SDS011;18281;51.364;9.566;2022-08-19T12:53:14;3.28;;;2.00;;
31680;SDS011;18281;51.364;9.566;2022-08-19T12:55:40;5.15;;;1.60;;
31680;SDS011;18281;51.364;9.566;2022-08-19T12:58:07;1.70;;;1.60;;
31680;SDS011;18281;51.364;9.566;2022-08-19T13:00:33;2.50;;;1.88;;
31680;SDS011;18281;51.364;9.566;2022-08-19T13:02:58;2.00;;;1.80;;
31680;SDS011;18281;51.364;9.566;2022-08-19T13:05:27;12.60;;;2.38;;
31680;SDS011;18281;51.364;9.566;2022-08-19T13:07:55;3.13;;;1.60;;
31680;SDS011;18281;51.364;9.566;2022-08-19T13:10:23;3.90;;;1.80;;
31680;SDS011;18281;51.364;9.566;2022-08-19T13:12:52;4.50;;;1.35;;
31680;SDS011;18281;51.364;9.566;2022-08-19T13:15:19;4.00;;;1.70;;
31680;SDS011;18281;51.364;9.566;2022-08-19T13:17:46;1.90;;;1.50;;
31680;SDS011;18281;51.364;9.566;2022-08-19T13:20:16;5.65;;;1.98;;
31680;SDS011;18281;51.364;9.566;2022-08-19T13:22:43;2.10;;;1.50;;
31680;SDS011;18281;51.364;9.566;2022-08-19T13:25:10;1.70;;;1.60;;
31680;SDS011;18281;51.364;9.566;2022-08-19T13:27:36;1.90;;;1.70;;
31680;SDS011;18281;51.364;9.566;2022-08-19T13:30:03;5.15;;;1.70;;
31680;SDS011;18281;51.364;9.566;2022-08-19T13:32:49;1.80;;;1.63;;
31680;SDS011;18281;51.364;9.566;2022-08-19T13:35:33;2.80;;;1.50;;
31680;SDS011;18281;51.364;9.566;2022-08-19T13:37:58;2.53;;;1.70;;
31680;SDS011;18281;51.364;9.566;2022-08-19T13:40:24;1.58;;;1.30;;
31680;SDS011;18281;51.364;9.566;2022-08-19T13:42:52;1.85;;;1.42;;
31680;SDS011;18281;51.364;9.566;2022-08-19T13:45:19;8.05;;;1.80;;
31680;SDS011;18281;51.364;9.566;2022-08-19T13:47:48;5.80;;;1.40;;
31680;SDS011;18281;51.364;9.566;2022-08-19T13:50:16;1.60;;;1.50;;
31680;SDS011;18281;51.364;9.566;2022-08-19T13:52:44;2.25;;;1.60;;
31680;SDS011;18281;51.364;9.566;2022-08-19T13:55:10;3.88;;;1.77;;
31680;SDS011;18281;51.364;9.566;2022-08-19T13:57:37;2.97;;;1.35;;
31680;SDS011;18281;51.364;9.566;2022-08-19T14:00:07;1.40;;;1.30;;
31680;SDS011;18281;51.364;9.566;2022-08-19T14:02:38;2.28;;;1.40;;
31680;SDS011;18281;51.364;9.566;2022-08-19T14:05:05;2.95;;;1.70;;
31680;SDS011;18281;51.364;9.566;2022-08-19T14:07:32;2.10;;;1.47;;
31680;SDS011;18281;51.364;9.566;2022-08-19T14:09:58;1.50;;;1.40;;
31680;SDS011;18281;51.364;9.566;2022-08-19T14:12:23;1.98;;;1.30;;
31680;SDS011;18281;51.364;9.566;2022-08-19T14:14:49;3.17;;;1.20;;
31680;SDS011;18281;51.364;9.566;2022-08-19T14:17:14;1.20;;;1.10;;
31680;SDS011;18281;51.364;9.566;2022-08-19T14:19:40;3.35;;;1.38;;
31680;SDS011;18281;51.364;9.566;2022-08-19T14:22:06;1.45;;;1.30;;
31680;SDS011;18281;51.364;9.566;2022-08-19T14:24:31;1.90;;;1.40;;
31680;SDS011;18281;51.364;9.566;2022-08-19T14:26:59;1.60;;;1.50;;
31680;SDS011;18281;51.364;9.566;2022-08-19T14:29:25;2.25;;;1.20;;
31680;SDS011;18281;51.364;9.566;2022-08-19T14:31:52;1.52;;;1.25;;
31680;SDS011;18281;51.364;9.566;2022-08-19T14:34:18;1.83;;;1.15;;
31680;SDS011;18281;51.364;9.566;2022-08-19T14:36:43;3.13;;;1.25;;
31680;SDS011;18281;51.364;9.566;2022-08-19T14:39:10;4.60;;;1.13;;
31680;SDS011;18281;51.364;9.566;2022-08-19T14:41:35;2.45;;;1.20;;
31680;SDS011;18281;51.364;9.566;2022-08-19T14:44:01;2.10;;;1.25;;
31680;SDS011;18281;51.364;9.566;2022-08-19T14:46:27;6.15;;;1.63;;
31680;SDS011;18281;51.364;9.566;2022-08-19T14:48:53;1.30;;;1.20;;
31680;SDS011;18281;51.364;9.566;2022-08-19T14:51:20;1.05;;;1.05;;
31680;SDS011;18281;51.364;9.566;2022-08-19T14:53:47;2.33;;;1.20;;
31680;SDS011;18281;51.364;9.566;2022-08-19T14:56:17;2.42;;;1.35;;
31680;SDS011;18281;51.364;9.566;2022-08-19T14:58:44;1.30;;;1.20;;
31680;SDS011;18281;51.364;9.566;2022-08-19T15:01:11;3.22;;;1.30;;
31680;SDS011;18281;51.364;9.566;2022-08-19T15:03:45;2.83;;;1.15;;
31680;SDS011;18281;51.364;9.566;2022-08-19T15:06:37;1.52;;;1.38;;
31680;SDS011;18281;51.364;9.566;2022-08-19T15:09:09;3.60;;;1.42;;
31680;SDS011;18281;51.364;9.566;2022-08-19T15:11:42;1.52;;;1.30;;
31680;SDS011;18281;51.364;9.566;2022-08-19T15:14:08;2.13;;;1.30;;
31680;SDS011;18281;51.364;9.566;2022-08-19T15:16:34;4.70;;;1.60;;
31680;SDS011;18281;51.364;9.566;2022-08-19T15:19:00;1.55;;;1.40;;
31680;SDS011;18281;51.364;9.566;2022-08-19T15:21:26;1.30;;;1.20;;
31680;SDS011;18281;51.364;9.566;2022-08-19T15:23:54;2.40;;;1.70;;
31680;SDS011;18281;51.364;9.566;2022-08-19T15:26:21;1.40;;;1.30;;
31680;SDS011;18281;51.364;9.566;2022-08-19T15:28:46;3.55;;;1.35;;
31680;SDS011;18281;51.364;9.566;2022-08-19T15:31:15;2.08;;;1.30;;
31680;SDS011;18281;51.364;9.566;2022-08-19T15:33:47;1.50;;;1.40;;
31680;SDS011;18281;51.364;9.566;2022-08-19T15:36:13;2.53;;;1.45;;
31680;SDS011;18281;51.364;9.566;2022-08-19T15:38:40;3.78;;;3.20;;
31680;SDS011;18281;51.364;9.566;2022-08-19T15:44:02;8.20;;;7.20;;
31680;SDS011;18281;51.364;9.566;2022-08-19T15:46:33;5.22;;;1.73;;
31680;SDS011;18281;51.364;9.566;2022-08-19T15:48:59;2.55;;;1.83;;
31680;SDS011;18281;51.364;9.566;2022-08-19T15:51:25;5.90;;;3.35;;
31680;SDS011;18281;51.364;9.566;2022-08-19T15:53:52;40.05;;;24.17;;
31680;SDS011;18281;51.364;9.566;2022-08-19T15:56:18;18.02;;;11.82;;
31680;SDS011;18281;51.364;9.566;2022-08-19T15:58:43;4.00;;;2.05;;
31680;SDS011;18281;51.364;9.566;2022-08-19T16:01:27;3.75;;;2.67;;
31680;SDS011;18281;51.364;9.566;2022-08-19T16:04:12;2.00;;;1.30;;